Time;durP1;ratioP1;P1;durP2;ratioP2;P2;SDS_P1;SDS_P2;PMS_P1;PMS_P2;Temp;Humidity;BMP_temperature;BMP_pressure;BME280_temperature;BME280_humidity;BME280_pressure;Samples;Min_cycle;Max_cycle;Signal;HPM_P1;HPM_P2
2023/05/27 00:01:49;;;;;;;5.47;1.92;;;;;;;;;;5024830;28;20116;-76
2023/05/27 00:04:14;;;;;;;7.00;1.95;;;;;;;;;;5043531;28;20032;-76
2023/05/27 00:06:40;;;;;;;7.05;2.20;;;;;;;;;;5026930;28;20048;-78
2023/05/27 00:09:06;;;;;;;9.20;2.10;;;;;;;;;;5026417;28;20088;-78
2023/05/27 00:11:31;;;;;;;8.13;2.40;;;;;;;;;;5045112;28;20036;-76
2023/05/27 00:13:56;;;;;;;10.23;2.78;;;;;;;;;;5031861;28;20129;-75
2023/05/27 00:16:23;;;;;;;7.32;2.00;;;;;;;;;;5028733;28;20113;-78
2023/05/27 00:18:48;;;;;;;8.93;2.15;;;;;;;;;;5032940;28;20025;-76
2023/05/27 00:21:14;;;;;;;7.57;2.00;;;;;;;;;;5031203;28;20644;-76
2023/05/27 00:23:41;;;;;;;7.93;1.98;;;;;;;;;;5055523;28;20025;-77
2023/05/27 00:26:07;;;;;;;7.20;2.28;;;;;;;;;;5053293;28;20090;-75
2023/05/27 00:28:32;;;;;;;9.95;2.30;;;;;;;;;;5033951;28;20411;-76
2023/05/27 00:30:57;;;;;;;8.60;2.20;;;;;;;;;;5050147;28;20078;-75
2023/05/27 00:33:23;;;;;;;6.55;2.15;;;;;;;;;;5052106;28;20395;-76
2023/05/27 00:35:49;;;;;;;5.13;1.85;;;;;;;;;;5051669;28;20469;-75
2023/05/27 00:38:14;;;;;;;6.80;2.00;;;;;;;;;;5045489;28;20370;-78
2023/05/27 00:40:40;;;;;;;5.60;1.95;;;;;;;;;;5028816;28;20492;-76
2023/05/27 00:43:06;;;;;;;7.97;2.05;;;;;;;;;;5039538;28;20035;-76
2023/05/27 00:45:31;;;;;;;7.28;2.13;;;;;;;;;;5046762;28;20033;-75
2023/05/27 00:47:57;;;;;;;7.10;2.42;;;;;;;;;;5028919;28;20047;-75
2023/05/27 00:50:25;;;;;;;6.70;2.20;;;;;;;;;;5044104;28;20029;-77
2023/05/27 00:52:50;;;;;;;8.57;2.40;;;;;;;;;;5044116;28;20064;-75
2023/05/27 00:55:16;;;;;;;8.30;2.30;;;;;;;;;;5031083;28;20060;-75
2023/05/27 00:57:42;;;;;;;7.82;2.88;;;;;;;;;;5047342;28;20389;-76
2023/05/27 01:00:11;;;;;;;5.93;2.17;;;;;;;;;;5028167;28;20434;-78
2023/05/27 01:02:40;;;;;;;5.00;1.90;;;;;;;;;;5030497;28;20036;-77
2023/05/27 01:05:06;;;;;;;6.68;1.95;;;;;;;;;;5025861;28;20079;-75
2023/05/27 01:07:34;;;;;;;10.07;2.58;;;;;;;;;;5047586;28;20028;-75
2023/05/27 01:10:26;;;;;;;7.53;2.45;;;;;;;;;;5029293;28;20127;-75
2023/05/27 01:13:03;;;;;;;7.50;2.90;;;;;;;;;;5039815;28;20132;-76
2023/05/27 01:15:31;;;;;;;5.72;2.20;;;;;;;;;;5031584;28;20469;-76
2023/05/27 01:18:01;;;;;;;11.60;2.20;;;;;;;;;;5025488;28;20509;-76
2023/05/27 01:20:26;;;;;;;8.20;2.58;;;;;;;;;;5032148;28;20028;-75
2023/05/27 01:22:53;;;;;;;9.20;2.30;;;;;;;;;;5031752;28;20401;-77
2023/05/27 01:25:21;;;;;;;7.03;2.10;;;;;;;;;;5029783;28;20044;-76
2023/05/27 01:27:47;;;;;;;8.68;2.50;;;;;;;;;;5034276;28;20035;-75
2023/05/27 01:30:12;;;;;;;5.25;2.08;;;;;;;;;;5033661;28;20029;-75
2023/05/27 01:32:43;;;;;;;7.05;2.38;;;;;;;;;;5045357;28;20040;-76
2023/05/27 01:35:23;;;;;;;8.73;2.20;;;;;;;;;;5035689;28;20045;-75
2023/05/27 01:37:51;;;;;;;9.80;2.60;;;;;;;;;;5050299;28;20090;-76
2023/05/27 01:40:17;;;;;;;7.00;2.20;;;;;;;;;;5049255;28;20102;-76
2023/05/27 01:42:44;;;;;;;7.40;2.47;;;;;;;;;;5048653;28;20657;-76
2023/05/27 01:45:10;;;;;;;7.75;2.55;;;;;;;;;;5039576;28;20029;-76
2023/05/27 01:47:36;;;;;;;7.70;2.65;;;;;;;;;;5046962;28;20495;-77
2023/05/27 01:50:02;;;;;;;9.48;2.72;;;;;;;;;;5030469;28;20108;-75
2023/05/27 01:52:27;;;;;;;7.20;2.38;;;;;;;;;;5049176;28;20029;-76
2023/05/27 01:54:53;;;;;;;6.68;1.95;;;;;;;;;;5044745;28;21105;-75
2023/05/27 01:57:19;;;;;;;7.53;2.30;;;;;;;;;;5033375;28;20017;-75
2023/05/27 01:59:44;;;;;;;6.82;2.63;;;;;;;;;;5030272;28;20028;-76
2023/05/27 02:02:10;;;;;;;6.03;2.17;;;;;;;;;;5048451;28;20025;-76
2023/05/27 02:04:35;;;;;;;9.43;2.53;;;;;;;;;;5046053;28;20067;-75
2023/05/27 02:07:01;;;;;;;7.68;2.30;;;;;;;;;;5048406;28;20032;-76
2023/05/27 02:09:26;;;;;;;8.55;2.85;;;;;;;;;;5044778;28;20316;-75
2023/05/27 02:11:52;;;;;;;8.55;2.20;;;;;;;;;;5028168;28;20078;-76
2023/05/27 02:14:17;;;;;;;6.78;2.25;;;;;;;;;;5037155;28;20051;-75
2023/05/27 02:16:43;;;;;;;10.38;2.50;;;;;;;;;;5035450;28;20120;-78
2023/05/27 02:19:09;;;;;;;7.00;2.33;;;;;;;;;;5026132;28;20706;-75
2023/05/27 02:21:35;;;;;;;9.80;2.80;;;;;;;;;;5044929;28;20044;-76
2023/05/27 02:24:01;;;;;;;9.18;2.40;;;;;;;;;;5042538;28;20051;-76
2023/05/27 02:26:26;;;;;;;10.38;2.40;;;;;;;;;;5044022;28;20017;-79
2023/05/27 02:28:52;;;;;;;6.95;2.50;;;;;;;;;;5045557;28;20025;-75
2023/05/27 02:31:17;;;;;;;5.70;1.70;;;;;;;;;;5051795;28;20033;-76
2023/05/27 02:33:43;;;;;;;8.55;2.35;;;;;;;;;;5053698;28;20458;-75
2023/05/27 02:36:08;;;;;;;9.50;2.58;;;;;;;;;;5053617;28;20040;-75
2023/05/27 02:38:34;;;;;;;11.40;2.53;;;;;;;;;;5034999;28;20158;-75
2023/05/27 02:40:59;;;;;;;7.88;2.58;;;;;;;;;;5034467;28;20032;-77
2023/05/27 02:43:25;;;;;;;10.60;2.30;;;;;;;;;;5050241;28;20029;-77
2023/05/27 02:45:50;;;;;;;8.32;2.50;;;;;;;;;;5032585;28;20576;-75
2023/05/27 02:48:16;;;;;;;9.30;2.35;;;;;;;;;;5040061;28;20144;-75
2023/05/27 02:50:41;;;;;;;8.25;2.30;;;;;;;;;;5017556;28;20084;-76
2023/05/27 02:53:06;;;;;;;6.68;2.38;;;;;;;;;;5010387;28;20033;-76
2023/05/27 02:55:32;;;;;;;11.20;2.60;;;;;;;;;;5031719;28;20029;-76
2023/05/27 02:57:57;;;;;;;4.85;2.03;;;;;;;;;;5015056;28;20382;-75
2023/05/27 03:00:22;;;;;;;6.25;2.28;;;;;;;;;;5026518;28;20492;-77
2023/05/27 03:02:48;;;;;;;8.65;2.60;;;;;;;;;;5033286;28;20441;-75
2023/05/27 03:05:13;;;;;;;9.57;2.83;;;;;;;;;;5032229;28;20029;-75
2023/05/27 03:07:41;;;;;;;5.85;2.22;;;;;;;;;;5023683;28;20823;-75
2023/05/27 03:10:07;;;;;;;8.00;2.67;;;;;;;;;;5011347;28;20068;-75
2023/05/27 03:12:32;;;;;;;6.93;2.60;;;;;;;;;;5009823;28;20045;-76
2023/05/27 03:14:58;;;;;;;9.40;2.42;;;;;;;;;;5014150;28;20052;-76
2023/05/27 03:17:24;;;;;;;6.68;2.42;;;;;;;;;;5023666;28;20025;-74
2023/05/27 03:19:49;;;;;;;8.88;2.63;;;;;;;;;;5029612;28;20092;-76
2023/05/27 03:22:15;;;;;;;7.95;2.42;;;;;;;;;;5022348;28;20025;-76
2023/05/27 03:24:41;;;;;;;10.82;3.00;;;;;;;;;;5007867;28;20052;-75
2023/05/27 03:27:06;;;;;;;6.88;2.10;;;;;;;;;;5026148;28;20025;-76
2023/05/27 03:29:32;;;;;;;9.98;2.85;;;;;;;;;;5028275;28;20036;-76
2023/05/27 03:31:58;;;;;;;12.05;2.60;;;;;;;;;;5016247;28;20034;-76
2023/05/27 03:34:24;;;;;;;8.60;2.60;;;;;;;;;;5009522;28;20036;-76
2023/05/27 03:36:50;;;;;;;7.95;2.60;;;;;;;;;;5013233;28;20053;-76
2023/05/27 03:39:16;;;;;;;6.68;2.40;;;;;;;;;;5024512;28;20072;-75
2023/05/27 03:41:42;;;;;;;8.88;2.13;;;;;;;;;;5008865;28;20073;-75
2023/05/27 03:44:08;;;;;;;8.50;2.50;;;;;;;;;;5015437;28;20416;-74
2023/05/27 03:46:34;;;;;;;8.90;2.63;;;;;;;;;;5028298;28;20034;-75
2023/05/27 03:49:00;;;;;;;8.02;2.88;;;;;;;;;;5045326;28;20054;-76
2023/05/27 03:51:25;;;;;;;9.88;2.90;;;;;;;;;;5051726;28;20016;-75
2023/05/27 03:53:51;;;;;;;7.47;2.67;;;;;;;;;;5048832;28;20104;-77
2023/05/27 03:56:16;;;;;;;7.55;2.60;;;;;;;;;;5033240;28;20028;-75
2023/05/27 03:58:42;;;;;;;8.25;2.33;;;;;;;;;;5031183;28;20029;-76
2023/05/27 04:01:08;;;;;;;7.40;2.47;;;;;;;;;;5028397;28;20044;-75
2023/05/27 04:03:33;;;;;;;10.02;2.70;;;;;;;;;;5041695;28;20092;-76
2023/05/27 04:05:59;;;;;;;8.57;2.50;;;;;;;;;;5043622;28;20084;-76
2023/05/27 04:08:27;;;;;;;6.65;2.47;;;;;;;;;;5025076;28;20026;-75
2023/05/27 04:10:53;;;;;;;13.38;2.78;;;;;;;;;;5033961;28;20028;-76
2023/05/27 04:13:19;;;;;;;8.10;2.55;;;;;;;;;;5046713;28;20112;-75
2023/05/27 04:15:44;;;;;;;7.05;2.40;;;;;;;;;;5049662;28;20120;-75
2023/05/27 04:18:10;;;;;;;8.15;2.53;;;;;;;;;;5034620;28;20032;-76
2023/05/27 04:20:40;;;;;;;7.85;2.78;;;;;;;;;;5045858;28;20166;-76
2023/05/27 04:23:09;;;;;;;8.95;2.20;;;;;;;;;;5047351;28;20044;-75
2023/05/27 04:25:34;;;;;;;6.57;2.38;;;;;;;;;;5044291;28;20040;-75
2023/05/27 04:28:03;;;;;;;8.25;2.97;;;;;;;;;;5039905;28;20028;-76
2023/05/27 04:30:29;;;;;;;8.57;2.50;;;;;;;;;;5032247;28;20028;-77
2023/05/27 04:32:55;;;;;;;11.55;2.40;;;;;;;;;;5026278;28;20409;-76
2023/05/27 04:35:21;;;;;;;6.85;2.67;;;;;;;;;;5044458;28;20054;-76
2023/05/27 04:37:47;;;;;;;9.60;2.70;;;;;;;;;;5043150;28;20485;-75
2023/05/27 04:40:13;;;;;;;6.93;2.72;;;;;;;;;;5041679;28;20132;-75
2023/05/27 04:42:39;;;;;;;8.82;2.50;;;;;;;;;;5024451;28;20158;-76
2023/05/27 04:45:09;;;;;;;9.70;2.60;;;;;;;;;;5050979;28;20032;-75
2023/05/27 04:47:36;;;;;;;11.55;2.67;;;;;;;;;;5046230;28;20029;-77
2023/05/27 04:50:03;;;;;;;9.30;3.00;;;;;;;;;;5033730;28;20394;-76
2023/05/27 04:52:29;;;;;;;7.45;2.85;;;;;;;;;;5031732;28;20057;-76
2023/05/27 04:54:55;;;;;;;10.77;2.63;;;;;;;;;;5030108;28;20115;-75
2023/05/27 04:57:21;;;;;;;8.07;2.42;;;;;;;;;;5045210;28;20065;-74
2023/05/27 05:00:18;;;;;;;8.85;2.50;;;;;;;;;;5046342;28;20030;-75
2023/05/27 05:02:46;;;;;;;7.32;2.58;;;;;;;;;;5025370;28;20021;-75
2023/05/27 05:05:11;;;;;;;7.95;2.63;;;;;;;;;;5027339;28;20269;-75
2023/05/27 05:07:39;;;;;;;7.07;2.35;;;;;;;;;;5043907;28;20642;-76
2023/05/27 05:10:08;;;;;;;8.77;2.65;;;;;;;;;;5049186;28;20122;-77
2023/05/27 05:12:35;;;;;;;6.35;2.30;;;;;;;;;;5050372;28;20021;-75
2023/05/27 05:15:01;;;;;;;8.32;2.67;;;;;;;;;;5051447;28;20056;-75
2023/05/27 05:17:26;;;;;;;8.10;2.28;;;;;;;;;;5045329;28;20757;-75
2023/05/27 05:19:52;;;;;;;6.57;2.50;;;;;;;;;;5047445;28;20025;-75
2023/05/27 05:22:22;;;;;;;9.20;2.25;;;;;;;;;;5043035;28;20036;-74
2023/05/27 05:24:49;;;;;;;9.25;2.78;;;;;;;;;;5029874;28;20028;-74
2023/05/27 05:27:15;;;;;;;7.32;2.60;;;;;;;;;;5038940;28;20028;-76
2023/05/27 05:29:40;;;;;;;5.53;2.38;;;;;;;;;;5029855;28;20078;-76
2023/05/27 05:32:07;;;;;;;7.90;2.65;;;;;;;;;;5031123;28;20032;-75
2023/05/27 05:34:32;;;;;;;8.00;2.95;;;;;;;;;;5036918;28;20025;-76
2023/05/27 05:36:58;;;;;;;7.82;2.50;;;;;;;;;;5042027;28;20647;-75
2023/05/27 05:39:23;;;;;;;6.68;2.60;;;;;;;;;;5035875;28;20021;-74
2023/05/27 05:41:48;;;;;;;9.07;2.63;;;;;;;;;;5043431;28;20021;-77
2023/05/27 05:44:15;;;;;;;6.70;2.42;;;;;;;;;;5054393;28;20021;-77
2023/05/27 05:46:40;;;;;;;7.10;2.50;;;;;;;;;;5074248;28;20025;-78
2023/05/27 05:49:06;;;;;;;9.27;2.70;;;;;;;;;;5075103;28;20028;-77
2023/05/27 05:51:31;;;;;;;6.80;2.25;;;;;;;;;;5068116;28;20045;-77
2023/05/27 05:53:57;;;;;;;9.02;2.78;;;;;;;;;;5071423;28;20073;-78
2023/05/27 05:56:23;;;;;;;11.10;3.20;;;;;;;;;;5061121;28;20440;-77
2023/05/27 05:58:48;;;;;;;7.72;3.50;;;;;;;;;;5074690;28;20020;-77
2023/05/27 06:01:15;;;;;;;8.77;2.78;;;;;;;;;;5071322;28;20031;-77
2023/05/27 06:03:40;;;;;;;8.75;2.30;;;;;;;;;;5069373;28;20036;-77
2023/05/27 06:06:06;;;;;;;6.38;2.65;;;;;;;;;;5066643;28;20033;-78
2023/05/27 06:08:31;;;;;;;10.05;3.03;;;;;;;;;;5042770;28;20103;-78
2023/05/27 06:10:57;;;;;;;10.27;3.00;;;;;;;;;;5032884;28;20502;-78
2023/05/27 06:13:22;;;;;;;8.15;2.60;;;;;;;;;;5045866;28;20052;-78
2023/05/27 06:15:47;;;;;;;9.52;2.78;;;;;;;;;;5034315;28;20120;-78
2023/05/27 06:18:13;;;;;;;7.60;2.35;;;;;;;;;;5045435;28;20029;-78
2023/05/27 06:20:39;;;;;;;10.10;3.22;;;;;;;;;;5029385;28;20058;-78
2023/05/27 06:23:05;;;;;;;9.90;2.92;;;;;;;;;;5042491;28;20025;-78
2023/05/27 06:25:30;;;;;;;11.18;3.13;;;;;;;;;;5048194;28;20033;-78
2023/05/27 06:27:56;;;;;;;6.55;2.45;;;;;;;;;;5045602;28;20037;-77
2023/05/27 06:30:21;;;;;;;10.90;2.63;;;;;;;;;;5039810;28;20090;-77
2023/05/27 06:32:46;;;;;;;9.32;2.38;;;;;;;;;;5024009;28;20079;-78
2023/05/27 06:35:12;;;;;;;8.75;2.83;;;;;;;;;;5031310;28;20029;-78
2023/05/27 06:37:37;;;;;;;8.85;2.83;;;;;;;;;;5044925;28;20035;-78
2023/05/27 06:40:03;;;;;;;8.00;2.88;;;;;;;;;;5020882;28;20048;-78
2023/05/27 06:42:28;;;;;;;11.93;3.13;;;;;;;;;;5028937;28;20489;-78
2023/05/27 06:44:53;;;;;;;9.60;2.72;;;;;;;;;;5047110;28;20161;-78
2023/05/27 06:47:20;;;;;;;11.00;3.17;;;;;;;;;;5028578;28;20063;-78
2023/05/27 06:49:45;;;;;;;9.43;3.08;;;;;;;;;;5049587;28;20544;-78
2023/05/27 06:52:10;;;;;;;8.95;3.47;;;;;;;;;;5030049;28;20120;-78
2023/05/27 06:54:36;;;;;;;10.95;2.92;;;;;;;;;;5029584;28;20035;-78
2023/05/27 06:57:02;;;;;;;8.35;2.50;;;;;;;;;;5030116;28;20108;-78
2023/05/27 06:59:29;;;;;;;7.93;2.67;;;;;;;;;;5026720;28;20100;-78
2023/05/27 07:01:56;;;;;;;10.98;3.63;;;;;;;;;;5025865;28;20060;-78
2023/05/27 07:04:21;;;;;;;10.35;2.88;;;;;;;;;;5031915;28;20036;-78
2023/05/27 07:06:47;;;;;;;11.20;3.03;;;;;;;;;;5031013;28;20021;-78
2023/05/27 07:09:13;;;;;;;9.40;3.13;;;;;;;;;;5031335;28;20510;-78
2023/05/27 07:11:39;;;;;;;10.85;3.60;;;;;;;;;;5033398;28;20024;-78
2023/05/27 07:14:05;;;;;;;8.32;3.13;;;;;;;;;;5033452;28;20090;-78
2023/05/27 07:16:30;;;;;;;8.88;3.15;;;;;;;;;;5047852;28;20033;-78
2023/05/27 07:18:55;;;;;;;10.40;3.28;;;;;;;;;;5045762;28;20029;-77
2023/05/27 07:21:21;;;;;;;9.02;3.17;;;;;;;;;;5053660;28;20021;-78
2023/05/27 07:23:46;;;;;;;8.32;3.17;;;;;;;;;;5032001;28;20033;-78
2023/05/27 07:26:11;;;;;;;9.48;2.90;;;;;;;;;;5034849;28;20029;-77
2023/05/27 07:28:37;;;;;;;15.15;3.50;;;;;;;;;;5030272;28;20124;-78
2023/05/27 07:31:03;;;;;;;11.55;3.60;;;;;;;;;;5052336;28;20029;-78
2023/05/27 07:33:29;;;;;;;10.82;4.10;;;;;;;;;;5045471;28;20059;-78
2023/05/27 07:35:54;;;;;;;10.48;3.40;;;;;;;;;;5026015;28;20061;-77
2023/05/27 07:38:19;;;;;;;8.82;3.13;;;;;;;;;;5029518;28;20021;-78
2023/05/27 07:40:45;;;;;;;9.73;3.28;;;;;;;;;;5026995;28;20043;-78
2023/05/27 07:43:10;;;;;;;9.13;3.05;;;;;;;;;;5048887;28;20401;-78
2023/05/27 07:45:36;;;;;;;12.25;3.67;;;;;;;;;;5028717;28;20381;-77
2023/05/27 07:48:01;;;;;;;11.27;3.45;;;;;;;;;;5028917;28;20032;-77
2023/05/27 07:50:26;;;;;;;11.38;3.40;;;;;;;;;;5032196;28;20036;-78
2023/05/27 07:52:52;;;;;;;12.35;3.60;;;;;;;;;;5036338;28;20534;-77
2023/05/27 07:55:17;;;;;;;14.95;3.83;;;;;;;;;;5034173;28;20433;-78
2023/05/27 07:57:43;;;;;;;12.32;4.00;;;;;;;;;;5053587;28;20036;-74
2023/05/27 08:00:09;;;;;;;12.95;3.80;;;;;;;;;;5046998;28;20075;-76
2023/05/27 08:02:35;;;;;;;12.00;3.65;;;;;;;;;;5048564;28;20477;-76
2023/05/27 08:05:00;;;;;;;11.00;3.60;;;;;;;;;;5042487;28;20040;-75
2023/05/27 08:07:25;;;;;;;11.30;3.65;;;;;;;;;;5043699;28;20061;-75
2023/05/27 08:09:51;;;;;;;11.48;3.78;;;;;;;;;;5034154;28;20029;-77
2023/05/27 08:12:17;;;;;;;10.35;3.70;;;;;;;;;;5025168;28;20043;-75
2023/05/27 08:14:43;;;;;;;10.00;3.60;;;;;;;;;;5031821;28;20473;-77
2023/05/27 08:17:08;;;;;;;11.75;4.38;;;;;;;;;;5054684;28;20028;-75
2023/05/27 08:19:34;;;;;;;10.93;3.55;;;;;;;;;;5047261;28;20037;-75
2023/05/27 08:22:00;;;;;;;14.18;3.92;;;;;;;;;;5032631;28;20047;-75
2023/05/27 08:24:27;;;;;;;8.57;3.65;;;;;;;;;;5030046;28;20025;-75
2023/05/27 08:26:52;;;;;;;11.57;3.60;;;;;;;;;;5048365;28;20021;-75
2023/05/27 08:29:18;;;;;;;12.00;3.55;;;;;;;;;;5026458;28;20460;-75
2023/05/27 08:31:43;;;;;;;10.98;3.88;;;;;;;;;;5036117;28;20020;-77
2023/05/27 08:34:10;;;;;;;12.35;3.83;;;;;;;;;;5040988;28;20668;-75
2023/05/27 08:36:35;;;;;;;11.95;4.38;;;;;;;;;;5020184;28;20025;-77
2023/05/27 08:39:02;;;;;;;14.10;3.95;;;;;;;;;;5023464;28;20035;-77
2023/05/27 08:41:28;;;;;;;11.07;4.03;;;;;;;;;;5040912;28;20531;-76
2023/05/27 08:43:53;;;;;;;10.88;4.13;;;;;;;;;;5021110;28;20041;-77
2023/05/27 08:46:20;;;;;;;13.82;4.38;;;;;;;;;;5040111;28;20417;-76
2023/05/27 08:48:46;;;;;;;10.23;3.90;;;;;;;;;;5028176;28;20205;-77
2023/05/27 08:51:13;;;;;;;11.48;4.00;;;;;;;;;;5027760;28;20112;-75
2023/05/27 08:53:39;;;;;;;12.70;4.40;;;;;;;;;;5048169;28;20029;-76
2023/05/27 08:56:06;;;;;;;10.05;3.72;;;;;;;;;;5022923;28;20027;-77
2023/05/27 08:58:32;;;;;;;11.70;3.65;;;;;;;;;;5028190;28;20467;-76
2023/05/27 09:00:57;;;;;;;12.02;4.10;;;;;;;;;;5043867;28;20119;-76
2023/05/27 09:03:23;;;;;;;19.98;5.13;;;;;;;;;;5033071;28;20029;-76
2023/05/27 09:05:48;;;;;;;11.60;3.80;;;;;;;;;;5055421;28;20585;-76
2023/05/27 09:08:14;;;;;;;10.48;3.60;;;;;;;;;;5037332;28;20033;-76
2023/05/27 09:10:41;;;;;;;12.38;3.78;;;;;;;;;;5064673;28;20051;-77
2023/05/27 09:13:07;;;;;;;13.95;4.25;;;;;;;;;;5053337;28;20052;-76
2023/05/27 09:15:33;;;;;;;12.18;4.18;;;;;;;;;;5051745;28;20029;-78
2023/05/27 09:17:59;;;;;;;12.60;4.05;;;;;;;;;;5063259;28;20043;-77
2023/05/27 09:20:26;;;;;;;12.07;4.40;;;;;;;;;;5048923;28;20033;-77
2023/05/27 09:23:00;;;;;;;11.50;3.70;;;;;;;;;;5067822;28;20036;-77
2023/05/27 09:25:27;;;;;;;14.02;4.43;;;;;;;;;;5065928;28;20032;-77
2023/05/27 09:27:52;;;;;;;9.80;3.88;;;;;;;;;;5066499;28;20047;-78
2023/05/27 09:30:20;;;;;;;12.63;3.88;;;;;;;;;;5062261;28;20041;-77
2023/05/27 09:32:46;;;;;;;10.07;4.03;;;;;;;;;;5051715;28;20056;-78
2023/05/27 09:35:12;;;;;;;13.75;4.22;;;;;;;;;;5043569;28;20013;-78
2023/05/27 09:37:39;;;;;;;12.05;3.90;;;;;;;;;;5055193;28;20002;-77
2023/05/27 09:40:12;;;;;;;10.23;3.78;;;;;;;;;;5041260;28;20053;-78
2023/05/27 09:42:45;;;;;;;11.82;4.20;;;;;;;;;;5032681;28;20029;-77
2023/05/27 09:45:15;;;;;;;10.85;4.72;;;;;;;;;;5051022;28;20040;-76
2023/05/27 09:47:49;;;;;;;13.50;4.20;;;;;;;;;;5044296;28;20086;-76
2023/05/27 09:50:16;;;;;;;11.85;4.00;;;;;;;;;;5027833;28;20433;-76
2023/05/27 09:55:22;;;;;;;11.65;3.80;;;;;;;;;;5044483;28;20064;-92
2023/05/27 09:58:31;;;;;;;10.27;3.60;;;;;;;;;;5024663;28;20032;-92
2023/05/27 10:00:58;;;;;;;11.75;4.07;;;;;;;;;;5044278;28;20095;-92
2023/05/27 10:03:24;;;;;;;9.32;3.83;;;;;;;;;;5021366;28;20961;-90
2023/05/27 10:05:52;;;;;;;10.63;3.83;;;;;;;;;;5020823;28;20029;-90
2023/05/27 10:12:25;;;;;;;;;;;;;;;;;;;;;
2023/05/27 10:15:44;;;;;;;11.43;3.40;;;;;;;;;;4988862;28;20030;-91
2023/05/27 10:18:24;;;;;;;11.05;3.97;;;;;;;;;;4985382;28;20093;-90
2023/05/27 10:20:50;;;;;;;11.55;3.95;;;;;;;;;;4978069;28;20402;-91
2023/05/27 10:23:30;;;;;;;11.50;3.70;;;;;;;;;;5001865;28;20409;-90
2023/05/27 10:26:00;;;;;;;10.73;3.92;;;;;;;;;;5025547;28;20064;-91
2023/05/27 10:28:35;;;;;;;10.45;3.17;;;;;;;;;;5041017;28;20092;-92
2023/05/27 10:31:09;;;;;;;10.73;3.35;;;;;;;;;;5041943;28;20198;-91
2023/05/27 10:33:37;;;;;;;16.08;3.90;;;;;;;;;;5027435;28;20037;-91
2023/05/27 10:39:34;;;;;;;11.25;4.10;;;;;;;;;;5020988;23;20042;-91
2023/05/27 10:42:06;;;;;;;10.40;4.07;;;;;;;;;;4999661;28;20877;-91
2023/05/27 10:57:48;;;;;;;13.32;4.43;;;;;;;;;;5132869;22;21051;-79
2023/05/27 11:02:55;;;;;;;12.80;4.68;;;;;;;;;;5316911;23;20043;-92
2023/05/27 11:07:56;;;;;;;9.90;3.95;;;;;;;;;;5152524;23;20029;-77
2023/05/27 11:18:10;;;;;;;10.15;3.70;;;;;;;;;;5625353;23;20033;-78
2023/05/27 11:20:37;;;;;;;10.05;4.13;;;;;;;;;;5011914;28;20065;-78
2023/05/27 11:25:44;;;;;;;13.40;4.07;;;;;;;;;;5625613;23;20012;-75
2023/05/27 11:28:16;;;;;;;8.25;3.53;;;;;;;;;;5768867;23;21020;-77
2023/05/27 11:30:42;;;;;;;10.82;3.80;;;;;;;;;;5725174;23;21841;-77
2023/05/27 11:33:07;;;;;;;10.75;3.22;;;;;;;;;;5082461;23;20042;-77
2023/05/27 11:35:33;;;;;;;10.80;3.97;;;;;;;;;;5838800;23;21183;-76
2023/05/27 11:38:01;;;;;;;10.32;3.55;;;;;;;;;;5018400;28;20026;-76
2023/05/27 11:40:33;;;;;;;11.40;3.67;;;;;;;;;;5420183;23;20010;-77
2023/05/27 11:48:03;;;;;;;13.52;3.97;;;;;;;;;;4992111;28;20054;-76
2023/05/27 11:50:28;;;;;;;10.35;3.72;;;;;;;;;;4981081;28;20040;-77
2023/05/27 11:52:56;;;;;;;9.30;4.43;;;;;;;;;;5002204;28;20033;-76
2023/05/27 11:55:24;;;;;;;9.27;3.50;;;;;;;;;;4977418;28;20454;-76
2023/05/27 11:57:50;;;;;;;12.90;3.80;;;;;;;;;;5005460;28;20026;-77
2023/05/27 12:00:17;;;;;;;11.57;3.67;;;;;;;;;;4979118;28;20615;-76
2023/05/27 12:02:43;;;;;;;14.93;3.10;;;;;;;;;;5009521;28;20026;-76
2023/05/27 12:05:09;;;;;;;11.68;3.10;;;;;;;;;;4983997;28;20053;-77
2023/05/27 12:07:35;;;;;;;10.45;2.95;;;;;;;;;;5001183;28;20027;-76
2023/05/27 12:10:01;;;;;;;10.07;2.72;;;;;;;;;;5010521;28;20026;-76
2023/05/27 12:12:26;;;;;;;9.15;2.88;;;;;;;;;;4995934;28;20048;-76
2023/05/27 12:14:52;;;;;;;8.73;2.70;;;;;;;;;;4998335;28;20057;-77
2023/05/27 12:17:17;;;;;;;9.00;3.03;;;;;;;;;;4995471;28;20048;-77
2023/05/27 12:19:43;;;;;;;10.43;2.95;;;;;;;;;;5001913;28;20030;-77
2023/05/27 12:22:08;;;;;;;9.57;3.33;;;;;;;;;;4982758;28;20129;-77
2023/05/27 12:24:34;;;;;;;7.40;2.92;;;;;;;;;;5000000;28;20037;-76
2023/05/27 12:27:00;;;;;;;8.10;2.78;;;;;;;;;;5012745;28;20030;-77
2023/05/27 12:29:26;;;;;;;11.93;3.33;;;;;;;;;;5000256;28;20625;-76
2023/05/27 12:31:51;;;;;;;7.57;3.03;;;;;;;;;;4991266;28;20124;-77
2023/05/27 12:34:17;;;;;;;10.30;3.28;;;;;;;;;;5002245;28;20312;-77
2023/05/27 12:36:42;;;;;;;12.05;2.95;;;;;;;;;;5007430;28;20022;-77
2023/05/27 12:39:07;;;;;;;10.68;3.45;;;;;;;;;;5008156;28;20057;-77
2023/05/27 12:41:33;;;;;;;7.15;2.85;;;;;;;;;;4983076;28;20113;-77
2023/05/27 12:43:59;;;;;;;12.23;3.55;;;;;;;;;;4979551;28;20033;-76
2023/05/27 12:46:24;;;;;;;10.68;3.42;;;;;;;;;;4987081;28;20026;-77
2023/05/27 12:48:50;;;;;;;9.38;3.00;;;;;;;;;;4984068;28;20121;-77
2023/05/27 12:51:15;;;;;;;8.52;2.85;;;;;;;;;;4974950;28;20033;-77
2023/05/27 12:53:40;;;;;;;11.73;3.30;;;;;;;;;;4970362;28;20457;-76
2023/05/27 12:56:06;;;;;;;11.20;3.30;;;;;;;;;;4978819;28;20087;-77
2023/05/27 12:58:32;;;;;;;12.38;4.13;;;;;;;;;;4989193;28;20030;-77
2023/05/27 13:00:57;;;;;;;11.77;3.28;;;;;;;;;;4975295;28;20034;-76
2023/05/27 13:03:23;;;;;;;9.95;3.20;;;;;;;;;;4982986;28;20042;-76
2023/05/27 13:05:49;;;;;;;8.20;3.08;;;;;;;;;;4979613;28;20199;-77
2023/05/27 13:08:14;;;;;;;12.05;3.78;;;;;;;;;;4967126;28;20177;-76
2023/05/27 13:10:40;;;;;;;9.98;3.22;;;;;;;;;;4992379;28;20026;-76
2023/05/27 13:13:06;;;;;;;7.90;2.90;;;;;;;;;;4996787;28;20430;-76
2023/05/27 13:15:32;;;;;;;11.55;3.28;;;;;;;;;;4972640;28;20505;-76
2023/05/27 13:17:59;;;;;;;9.02;3.70;;;;;;;;;;4973563;28;20026;-75
2023/05/27 13:20:27;;;;;;;10.60;3.30;;;;;;;;;;4977819;28;20026;-76
2023/05/27 13:22:53;;;;;;;9.50;3.25;;;;;;;;;;4988294;28;20041;-76
2023/05/27 13:25:19;;;;;;;10.65;3.38;;;;;;;;;;4969096;28;20026;-76
2023/05/27 13:27:45;;;;;;;10.30;3.63;;;;;;;;;;4969411;28;20026;-76
2023/05/27 13:30:15;;;;;;;9.90;3.35;;;;;;;;;;4964449;28;20403;-76
2023/05/27 13:32:42;;;;;;;9.75;3.13;;;;;;;;;;4972651;28;20034;-75
2023/05/27 13:35:08;;;;;;;9.77;2.65;;;;;;;;;;4986976;28;20022;-77
2023/05/27 13:37:34;;;;;;;10.90;3.78;;;;;;;;;;4969827;28;20057;-78
2023/05/27 13:39:59;;;;;;;12.90;3.42;;;;;;;;;;4969183;28;20026;-78
2023/05/27 13:42:25;;;;;;;8.57;3.13;;;;;;;;;;4966913;28;20030;-78
2023/05/27 13:44:50;;;;;;;9.73;3.75;;;;;;;;;;4964027;28;20037;-77
2023/05/27 13:47:16;;;;;;;7.95;2.97;;;;;;;;;;4990879;28;20034;-77
2023/05/27 13:49:41;;;;;;;12.77;3.55;;;;;;;;;;4981544;28;20030;-78
2023/05/27 13:52:06;;;;;;;10.65;3.42;;;;;;;;;;4973762;28;20030;-78
2023/05/27 13:54:32;;;;;;;10.00;3.35;;;;;;;;;;4978910;28;20113;-77
2023/05/27 13:56:57;;;;;;;11.60;3.78;;;;;;;;;;4965114;28;20099;-78
2023/05/27 13:59:23;;;;;;;10.70;3.35;;;;;;;;;;4995919;28;20037;-77
2023/05/27 14:01:50;;;;;;;10.20;3.33;;;;;;;;;;4965955;28;20030;-77
2023/05/27 14:04:15;;;;;;;10.40;3.72;;;;;;;;;;4982783;28;20497;-77
2023/05/27 14:06:41;;;;;;;9.23;3.30;;;;;;;;;;4971421;28;20134;-77
2023/05/27 14:09:06;;;;;;;9.73;3.75;;;;;;;;;;4979231;28;20042;-77
2023/05/27 14:11:31;;;;;;;8.63;2.95;;;;;;;;;;4969492;28;20045;-77
2023/05/27 14:13:57;;;;;;;8.05;3.70;;;;;;;;;;4961391;28;20031;-76
2023/05/27 14:16:22;;;;;;;10.77;3.70;;;;;;;;;;4988800;28;20651;-77
2023/05/27 14:18:49;;;;;;;8.10;3.22;;;;;;;;;;4962808;28;20031;-77
2023/05/27 14:21:15;;;;;;;9.95;3.15;;;;;;;;;;4974586;28;20740;-77
2023/05/27 14:23:40;;;;;;;9.52;2.97;;;;;;;;;;4993372;28;20034;-77
2023/05/27 14:26:06;;;;;;;9.55;3.05;;;;;;;;;;4993109;28;20030;-77
2023/05/27 14:28:32;;;;;;;7.97;3.05;;;;;;;;;;4996836;28;20022;-76
2023/05/27 14:30:58;;;;;;;9.40;3.17;;;;;;;;;;4987907;28;20026;-77
2023/05/27 14:33:23;;;;;;;10.70;3.80;;;;;;;;;;4993062;28;20077;-77
2023/05/27 14:35:48;;;;;;;7.97;3.20;;;;;;;;;;4991877;28;20018;-77
2023/05/27 14:38:16;;;;;;;7.90;3.10;;;;;;;;;;4983598;28;20018;-78
2023/05/27 14:40:43;;;;;;;7.50;2.75;;;;;;;;;;4967331;28;20037;-77
2023/05/27 14:43:09;;;;;;;8.77;3.13;;;;;;;;;;4966314;28;20061;-77
2023/05/27 14:45:34;;;;;;;11.68;2.65;;;;;;;;;;4987265;28;20132;-77
2023/05/27 14:48:00;;;;;;;12.80;3.42;;;;;;;;;;4996701;28;20034;-77
2023/05/27 14:50:25;;;;;;;5.80;2.80;;;;;;;;;;4973285;28;20058;-76
2023/05/27 14:52:52;;;;;;;10.32;2.90;;;;;;;;;;5003974;28;20034;-77
2023/05/27 14:55:17;;;;;;;9.32;3.10;;;;;;;;;;4989423;28;20030;-77
2023/05/27 14:57:43;;;;;;;6.78;2.70;;;;;;;;;;4987802;28;20133;-77
2023/05/27 15:00:09;;;;;;;10.77;3.28;;;;;;;;;;4962156;28;20034;-78
2023/05/27 15:02:35;;;;;;;10.27;3.38;;;;;;;;;;4982597;28;20034;-77
2023/05/27 15:05:05;;;;;;;10.55;3.03;;;;;;;;;;4974624;28;20482;-77
2023/05/27 15:07:33;;;;;;;9.80;3.28;;;;;;;;;;4997035;28;20087;-78
2023/05/27 15:09:59;;;;;;;8.80;3.38;;;;;;;;;;4980748;28;20497;-77
2023/05/27 15:12:27;;;;;;;7.45;3.10;;;;;;;;;;4998649;28;20045;-76
2023/05/27 15:14:53;;;;;;;9.25;3.08;;;;;;;;;;4999171;28;20037;-78
2023/05/27 15:17:18;;;;;;;9.55;3.42;;;;;;;;;;4992714;28;20026;-78
2023/05/27 15:19:43;;;;;;;10.30;3.35;;;;;;;;;;4984169;28;20041;-78